sensor_id;sensor_type;location;lat;lon;timestamp;temperature;humidity
50989;DHT22;37008;52.210;21.112;2023-07-13T00:02:22;17.30;99.90
50989;DHT22;37008;52.210;21.112;2023-07-13T00:04:48;17.30;99.90
50989;DHT22;37008;52.210;21.112;2023-07-13T00:07:15;17.30;99.90
50989;DHT22;37008;52.210;21.112;2023-07-13T00:09:41;17.30;99.90
50989;DHT22;37008;52.210;21.112;2023-07-13T00:12:29;17.30;99.90
50989;DHT22;37008;52.210;21.112;2023-07-13T00:15:00;17.20;99.90
50989;DHT22;37008;52.210;21.112;2023-07-13T00:17:26;17.10;99.90
50989;DHT22;37008;52.210;21.112;2023-07-13T00:19:52;17.10;99.90
50989;DHT22;37008;52.210;21.112;2023-07-13T00:22:19;17.10;99.90
50989;DHT22;37008;52.210;21.112;2023-07-13T00:24:45;17.00;99.90
50989;DHT22;37008;52.210;21.112;2023-07-13T00:27:11;17.00;99.90
50989;DHT22;37008;52.210;21.112;2023-07-13T00:29:38;17.00;99.90
50989;DHT22;37008;52.210;21.112;2023-07-13T00:32:05;17.00;99.90
50989;DHT22;37008;52.210;21.112;2023-07-13T00:34:32;16.90;99.90
50989;DHT22;37008;52.210;21.112;2023-07-13T00:36:58;16.90;99.90
50989;DHT22;37008;52.210;21.112;2023-07-13T00:39:23;16.90;99.90
50989;DHT22;37008;52.210;21.112;2023-07-13T00:41:50;16.90;99.90
50989;DHT22;37008;52.210;21.112;2023-07-13T00:44:18;16.90;99.90
50989;DHT22;37008;52.210;21.112;2023-07-13T00:46:44;16.90;99.90
50989;DHT22;37008;52.210;21.112;2023-07-13T00:49:13;16.90;99.90
50989;DHT22;37008;52.210;21.112;2023-07-13T00:51:47;16.80;99.90
50989;DHT22;37008;52.210;21.112;2023-07-13T00:54:17;16.90;99.90
50989;DHT22;37008;52.210;21.112;2023-07-13T00:56:44;16.80;99.90
50989;DHT22;37008;52.210;21.112;2023-07-13T00:59:12;16.80;99.90
50989;DHT22;37008;52.210;21.112;2023-07-13T01:01:38;16.80;99.90
50989;DHT22;37008;52.210;21.112;2023-07-13T01:04:05;16.80;99.90
50989;DHT22;37008;52.210;21.112;2023-07-13T01:06:34;16.80;99.90
50989;DHT22;37008;52.210;21.112;2023-07-13T01:09:01;16.80;99.90
50989;DHT22;37008;52.210;21.112;2023-07-13T01:11:26;16.80;99.90
50989;DHT22;37008;52.210;21.112;2023-07-13T01:13:52;16.80;99.90
50989;DHT22;37008;52.210;21.112;2023-07-13T01:16:27;16.80;99.90
50989;DHT22;37008;52.210;21.112;2023-07-13T01:18:54;16.90;99.90
50989;DHT22;37008;52.210;21.112;2023-07-13T01:21:23;16.80;99.90
50989;DHT22;37008;52.210;21.112;2023-07-13T01:23:49;16.80;99.90
50989;DHT22;37008;52.210;21.112;2023-07-13T01:26:15;16.80;99.90
50989;DHT22;37008;52.210;21.112;2023-07-13T01:28:40;16.80;99.90
50989;DHT22;37008;52.210;21.112;2023-07-13T01:31:06;16.80;99.90
50989;DHT22;37008;52.210;21.112;2023-07-13T01:33:33;16.80;99.90
50989;DHT22;37008;52.210;21.112;2023-07-13T01:36:00;16.80;99.90
50989;DHT22;37008;52.210;21.112;2023-07-13T01:38:28;16.80;99.90
50989;DHT22;37008;52.210;21.112;2023-07-13T01:40:54;16.80;99.90
50989;DHT22;37008;52.210;21.112;2023-07-13T01:43:19;16.80;99.90
50989;DHT22;37008;52.210;21.112;2023-07-13T01:45:45;16.80;99.90
50989;DHT22;37008;52.210;21.112;2023-07-13T01:48:11;16.80;99.90
50989;DHT22;37008;52.210;21.112;2023-07-13T01:50:37;16.80;99.90
50989;DHT22;37008;52.210;21.112;2023-07-13T01:53:02;16.80;99.90
50989;DHT22;37008;52.210;21.112;2023-07-13T01:55:29;16.80;99.90
50989;DHT22;37008;52.210;21.112;2023-07-13T01:57:55;16.80;99.90
50989;DHT22;37008;52.210;21.112;2023-07-13T02:00:21;16.80;99.90
50989;DHT22;37008;52.210;21.112;2023-07-13T02:02:47;16.80;99.90
50989;DHT22;37008;52.210;21.112;2023-07-13T02:05:13;16.80;99.90
50989;DHT22;37008;52.210;21.112;2023-07-13T02:07:39;16.80;99.90
50989;DHT22;37008;52.210;21.112;2023-07-13T02:10:06;16.80;99.90
50989;DHT22;37008;52.210;21.112;2023-07-13T02:12:32;16.70;99.90
50989;DHT22;37008;52.210;21.112;2023-07-13T02:14:58;16.70;99.90
50989;DHT22;37008;52.210;21.112;2023-07-13T02:17:23;16.80;99.90
50989;DHT22;37008;52.210;21.112;2023-07-13T02:19:49;16.70;99.90
50989;DHT22;37008;52.210;21.112;2023-07-13T02:22:15;16.70;99.90
50989;DHT22;37008;52.210;21.112;2023-07-13T02:24:40;16.70;99.90
50989;DHT22;37008;52.210;21.112;2023-07-13T02:27:06;16.80;99.90
50989;DHT22;37008;52.210;21.112;2023-07-13T02:29:32;16.80;99.90
50989;DHT22;37008;52.210;21.112;2023-07-13T02:31:57;16.70;99.90
50989;DHT22;37008;52.210;21.112;2023-07-13T02:34:23;16.70;99.90
50989;DHT22;37008;52.210;21.112;2023-07-13T02:36:48;16.70;99.90
50989;DHT22;37008;52.210;21.112;2023-07-13T02:39:14;16.70;99.90
50989;DHT22;37008;52.210;21.112;2023-07-13T02:41:40;16.70;99.90
50989;DHT22;37008;52.210;21.112;2023-07-13T02:44:06;16.70;99.90
50989;DHT22;37008;52.210;21.112;2023-07-13T02:46:34;16.70;99.90
50989;DHT22;37008;52.210;21.112;2023-07-13T02:49:00;16.70;99.90
50989;DHT22;37008;52.210;21.112;2023-07-13T02:51:26;16.70;99.90
50989;DHT22;37008;52.210;21.112;2023-07-13T02:53:51;16.70;99.90
50989;DHT22;37008;52.210;21.112;2023-07-13T02:56:21;16.70;99.90
50989;DHT22;37008;52.210;21.112;2023-07-13T02:58:47;16.70;99.90
50989;DHT22;37008;52.210;21.112;2023-07-13T03:01:13;16.60;99.90
50989;DHT22;37008;52.210;21.112;2023-07-13T03:03:44;16.60;99.90
50989;DHT22;37008;52.210;21.112;2023-07-13T03:06:11;16.60;99.90
50989;DHT22;37008;52.210;21.112;2023-07-13T03:08:37;16.60;99.90
50989;DHT22;37008;52.210;21.112;2023-07-13T03:11:08;16.60;99.90
50989;DHT22;37008;52.210;21.112;2023-07-13T03:13:34;16.60;99.90
50989;DHT22;37008;52.210;21.112;2023-07-13T03:16:00;16.50;99.90
50989;DHT22;37008;52.210;21.112;2023-07-13T03:18:27;16.50;99.90
50989;DHT22;37008;52.210;21.112;2023-07-13T03:20:53;16.50;99.90
50989;DHT22;37008;52.210;21.112;2023-07-13T03:23:19;16.40;99.90
50989;DHT22;37008;52.210;21.112;2023-07-13T03:25:45;16.40;99.90
50989;DHT22;37008;52.210;21.112;2023-07-13T03:28:12;16.40;99.90
50989;DHT22;37008;52.210;21.112;2023-07-13T03:30:38;16.40;99.90
50989;DHT22;37008;52.210;21.112;2023-07-13T03:33:04;16.40;99.90
50989;DHT22;37008;52.210;21.112;2023-07-13T03:35:30;16.40;99.90
50989;DHT22;37008;52.210;21.112;2023-07-13T03:37:55;16.40;99.90
50989;DHT22;37008;52.210;21.112;2023-07-13T03:40:22;16.40;99.90
50989;DHT22;37008;52.210;21.112;2023-07-13T03:42:48;16.40;99.90
50989;DHT22;37008;52.210;21.112;2023-07-13T03:45:14;16.40;99.90
50989;DHT22;37008;52.210;21.112;2023-07-13T03:47:39;16.50;99.90
50989;DHT22;37008;52.210;21.112;2023-07-13T03:50:05;16.60;99.90
50989;DHT22;37008;52.210;21.112;2023-07-13T03:52:31;16.80;99.90
50989;DHT22;37008;52.210;21.112;2023-07-13T03:54:57;17.00;99.90
50989;DHT22;37008;52.210;21.112;2023-07-13T03:57:22;17.10;99.90
50989;DHT22;37008;52.210;21.112;2023-07-13T03:59:48;17.30;99.90
50989;DHT22;37008;52.210;21.112;2023-07-13T04:02:14;17.60;99.90
50989;DHT22;37008;52.210;21.112;2023-07-13T04:04:39;17.90;99.90
50989;DHT22;37008;52.210;21.112;2023-07-13T04:07:06;18.30;99.90
50989;DHT22;37008;52.210;21.112;2023-07-13T04:09:33;18.60;99.90
50989;DHT22;37008;52.210;21.112;2023-07-13T04:11:59;18.90;99.90
50989;DHT22;37008;52.210;21.112;2023-07-13T04:14:24;18.90;99.90
50989;DHT22;37008;52.210;21.112;2023-07-13T04:16:50;19.00;99.90
50989;DHT22;37008;52.210;21.112;2023-07-13T04:19:16;19.00;99.90
50989;DHT22;37008;52.210;21.112;2023-07-13T04:21:41;19.00;99.90
50989;DHT22;37008;52.210;21.112;2023-07-13T04:24:07;19.10;99.90
50989;DHT22;37008;52.210;21.112;2023-07-13T04:26:33;19.30;99.90
50989;DHT22;37008;52.210;21.112;2023-07-13T04:29:01;19.40;99.90
50989;DHT22;37008;52.210;21.112;2023-07-13T04:31:29;19.70;99.90
50989;DHT22;37008;52.210;21.112;2023-07-13T04:33:55;19.80;99.90
50989;DHT22;37008;52.210;21.112;2023-07-13T04:36:20;20.00;99.90
50989;DHT22;37008;52.210;21.112;2023-07-13T04:38:46;20.20;99.90
50989;DHT22;37008;52.210;21.112;2023-07-13T04:41:13;20.30;99.90
50989;DHT22;37008;52.210;21.112;2023-07-13T04:43:39;20.40;99.90
50989;DHT22;37008;52.210;21.112;2023-07-13T04:46:10;20.50;99.90
50989;DHT22;37008;52.210;21.112;2023-07-13T04:48:36;20.60;99.90
50989;DHT22;37008;52.210;21.112;2023-07-13T04:51:02;20.60;99.90
50989;DHT22;37008;52.210;21.112;2023-07-13T04:53:28;20.60;99.90
50989;DHT22;37008;52.210;21.112;2023-07-13T04:55:54;20.60;99.90
50989;DHT22;37008;52.210;21.112;2023-07-13T04:58:20;20.60;99.90
50989;DHT22;37008;52.210;21.112;2023-07-13T05:00:47;20.70;99.90
50989;DHT22;37008;52.210;21.112;2023-07-13T05:03:13;20.70;99.90
50989;DHT22;37008;52.210;21.112;2023-07-13T05:05:38;20.70;99.90
50989;DHT22;37008;52.210;21.112;2023-07-13T05:08:04;20.60;99.90
50989;DHT22;37008;52.210;21.112;2023-07-13T05:10:30;20.60;99.90
50989;DHT22;37008;52.210;21.112;2023-07-13T05:12:55;20.70;99.90
50989;DHT22;37008;52.210;21.112;2023-07-13T05:15:21;20.70;99.90
50989;DHT22;37008;52.210;21.112;2023-07-13T05:17:48;20.70;99.90
50989;DHT22;37008;52.210;21.112;2023-07-13T05:20:15;20.80;99.90
50989;DHT22;37008;52.210;21.112;2023-07-13T05:22:41;20.80;99.90
50989;DHT22;37008;52.210;21.112;2023-07-13T05:25:08;20.90;99.90
50989;DHT22;37008;52.210;21.112;2023-07-13T05:27:34;20.90;99.90
50989;DHT22;37008;52.210;21.112;2023-07-13T05:30:00;20.90;99.90
50989;DHT22;37008;52.210;21.112;2023-07-13T05:32:26;21.00;99.90
50989;DHT22;37008;52.210;21.112;2023-07-13T05:34:52;21.00;99.90
50989;DHT22;37008;52.210;21.112;2023-07-13T05:37:18;21.10;99.90
50989;DHT22;37008;52.210;21.112;2023-07-13T05:39:43;21.20;99.90
50989;DHT22;37008;52.210;21.112;2023-07-13T05:42:09;21.30;99.90
50989;DHT22;37008;52.210;21.112;2023-07-13T05:44:35;21.40;99.90
50989;DHT22;37008;52.210;21.112;2023-07-13T05:47:00;21.60;99.90
50989;DHT22;37008;52.210;21.112;2023-07-13T05:49:26;21.70;99.90
50989;DHT22;37008;52.210;21.112;2023-07-13T05:51:52;21.90;99.90
50989;DHT22;37008;52.210;21.112;2023-07-13T05:54:17;22.00;99.90
50989;DHT22;37008;52.210;21.112;2023-07-13T05:56:43;22.10;99.90
50989;DHT22;37008;52.210;21.112;2023-07-13T05:59:08;22.20;99.90
50989;DHT22;37008;52.210;21.112;2023-07-13T06:01:34;22.30;99.90
50989;DHT22;37008;52.210;21.112;2023-07-13T06:03:59;22.40;99.90
50989;DHT22;37008;52.210;21.112;2023-07-13T06:06:25;22.50;99.90
50989;DHT22;37008;52.210;21.112;2023-07-13T06:08:51;22.60;99.90
50989;DHT22;37008;52.210;21.112;2023-07-13T06:11:19;22.70;99.90
50989;DHT22;37008;52.210;21.112;2023-07-13T06:13:45;22.70;99.90
50989;DHT22;37008;52.210;21.112;2023-07-13T06:16:12;22.80;99.90
50989;DHT22;37008;52.210;21.112;2023-07-13T06:18:38;22.90;99.90
50989;DHT22;37008;52.210;21.112;2023-07-13T06:21:19;23.00;99.90
50989;DHT22;37008;52.210;21.112;2023-07-13T06:23:46;23.10;99.90
50989;DHT22;37008;52.210;21.112;2023-07-13T06:26:13;23.10;99.90
50989;DHT22;37008;52.210;21.112;2023-07-13T06:28:39;23.10;99.90
50989;DHT22;37008;52.210;21.112;2023-07-13T06:31:07;23.10;99.90
50989;DHT22;37008;52.210;21.112;2023-07-13T06:33:34;23.00;99.90
50989;DHT22;37008;52.210;21.112;2023-07-13T06:35:59;22.90;99.90
50989;DHT22;37008;52.210;21.112;2023-07-13T06:38:25;22.90;99.90
50989;DHT22;37008;52.210;21.112;2023-07-13T06:40:50;22.80;99.90
50989;DHT22;37008;52.210;21.112;2023-07-13T06:43:16;22.80;99.90
50989;DHT22;37008;52.210;21.112;2023-07-13T06:45:45;22.80;99.90
50989;DHT22;37008;52.210;21.112;2023-07-13T06:48:19;22.70;99.90
50989;DHT22;37008;52.210;21.112;2023-07-13T06:50:45;22.80;99.90
50989;DHT22;37008;52.210;21.112;2023-07-13T06:53:12;22.80;99.90
50989;DHT22;37008;52.210;21.112;2023-07-13T06:55:39;22.80;99.90
50989;DHT22;37008;52.210;21.112;2023-07-13T06:58:05;22.80;99.90
50989;DHT22;37008;52.210;21.112;2023-07-13T07:00:31;22.80;99.90
50989;DHT22;37008;52.210;21.112;2023-07-13T07:02:56;22.80;99.90
50989;DHT22;37008;52.210;21.112;2023-07-13T07:05:22;22.80;99.90
50989;DHT22;37008;52.210;21.112;2023-07-13T07:07:49;22.90;98.70
50989;DHT22;37008;52.210;21.112;2023-07-13T07:10:15;22.90;96.40
50989;DHT22;37008;52.210;21.112;2023-07-13T07:12:41;23.00;94.60
50989;DHT22;37008;52.210;21.112;2023-07-13T07:15:06;23.10;93.70
50989;DHT22;37008;52.210;21.112;2023-07-13T07:17:32;23.20;93.00
50989;DHT22;37008;52.210;21.112;2023-07-13T07:19:57;23.30;92.20
50989;DHT22;37008;52.210;21.112;2023-07-13T07:22:23;23.30;91.80
50989;DHT22;37008;52.210;21.112;2023-07-13T07:24:52;23.40;91.10
50989;DHT22;37008;52.210;21.112;2023-07-13T07:27:18;23.50;87.90
50989;DHT22;37008;52.210;21.112;2023-07-13T07:29:43;23.60;86.60
50989;DHT22;37008;52.210;21.112;2023-07-13T07:32:09;23.60;83.80
50989;DHT22;37008;52.210;21.112;2023-07-13T07:34:34;23.70;81.80
50989;DHT22;37008;52.210;21.112;2023-07-13T07:37:01;23.80;81.00
50989;DHT22;37008;52.210;21.112;2023-07-13T07:39:27;23.90;81.40
50989;DHT22;37008;52.210;21.112;2023-07-13T07:41:53;24.00;82.20
50989;DHT22;37008;52.210;21.112;2023-07-13T07:44:18;24.00;80.60
50989;DHT22;37008;52.210;21.112;2023-07-13T07:46:44;24.00;78.50
50989;DHT22;37008;52.210;21.112;2023-07-13T07:49:10;24.10;78.60
50989;DHT22;37008;52.210;21.112;2023-07-13T07:51:36;24.20;77.90
50989;DHT22;37008;52.210;21.112;2023-07-13T07:54:02;24.20;77.50
50989;DHT22;37008;52.210;21.112;2023-07-13T07:56:28;24.30;78.40
50989;DHT22;37008;52.210;21.112;2023-07-13T07:58:53;24.40;77.00
50989;DHT22;37008;52.210;21.112;2023-07-13T08:01:19;24.40;75.70
50989;DHT22;37008;52.210;21.112;2023-07-13T08:03:45;24.50;75.30
50989;DHT22;37008;52.210;21.112;2023-07-13T08:06:10;24.60;75.10
50989;DHT22;37008;52.210;21.112;2023-07-13T08:08:36;24.70;75.80
50989;DHT22;37008;52.210;21.112;2023-07-13T08:11:06;24.70;74.80
50989;DHT22;37008;52.210;21.112;2023-07-13T08:13:32;24.70;73.70
50989;DHT22;37008;52.210;21.112;2023-07-13T08:16:05;24.70;72.10
50989;DHT22;37008;52.210;21.112;2023-07-13T08:18:32;24.80;70.00
50989;DHT22;37008;52.210;21.112;2023-07-13T08:20:57;25.00;70.00
50989;DHT22;37008;52.210;21.112;2023-07-13T08:23:24;25.10;69.70
50989;DHT22;37008;52.210;21.112;2023-07-13T08:25:52;25.30;69.60
50989;DHT22;37008;52.210;21.112;2023-07-13T08:28:21;25.50;69.00
50989;DHT22;37008;52.210;21.112;2023-07-13T08:30:47;25.80;68.10
50989;DHT22;37008;52.210;21.112;2023-07-13T08:33:15;26.20;68.90
50989;DHT22;37008;52.210;21.112;2023-07-13T08:35:40;26.50;68.40
50989;DHT22;37008;52.210;21.112;2023-07-13T08:38:06;26.70;67.40
50989;DHT22;37008;52.210;21.112;2023-07-13T08:40:33;26.80;65.90
50989;DHT22;37008;52.210;21.112;2023-07-13T08:42:59;26.90;63.80
50989;DHT22;37008;52.210;21.112;2023-07-13T08:45:47;27.00;62.20
50989;DHT22;37008;52.210;21.112;2023-07-13T08:48:24;27.10;62.60
50989;DHT22;37008;52.210;21.112;2023-07-13T08:53:46;27.30;62.40
50989;DHT22;37008;52.210;21.112;2023-07-13T08:56:21;27.40;61.90
50989;DHT22;37008;52.210;21.112;2023-07-13T08:58:53;27.50;60.10
50989;DHT22;37008;52.210;21.112;2023-07-13T09:01:56;27.70;59.50
50989;DHT22;37008;52.210;21.112;2023-07-13T09:04:29;27.80;57.70
50989;DHT22;37008;52.210;21.112;2023-07-13T09:07:14;27.80;58.20
50989;DHT22;37008;52.210;21.112;2023-07-13T09:09:58;27.80;58.00
50989;DHT22;37008;52.210;21.112;2023-07-13T09:12:56;27.90;58.70
50989;DHT22;37008;52.210;21.112;2023-07-13T09:15:53;28.00;57.80
50989;DHT22;37008;52.210;21.112;2023-07-13T09:18:41;28.10;58.50
50989;DHT22;37008;52.210;21.112;2023-07-13T09:21:15;28.30;58.40
50989;DHT22;37008;52.210;21.112;2023-07-13T09:23:42;28.50;58.70
50989;DHT22;37008;52.210;21.112;2023-07-13T09:26:21;28.60;56.50
50989;DHT22;37008;52.210;21.112;2023-07-13T09:29:23;28.60;55.50
50989;DHT22;37008;52.210;21.112;2023-07-13T09:31:52;28.60;55.70
50989;DHT22;37008;52.210;21.112;2023-07-13T09:34:18;28.70;55.90
50989;DHT22;37008;52.210;21.112;2023-07-13T09:36:44;28.70;56.70
50989;DHT22;37008;52.210;21.112;2023-07-13T09:39:28;28.70;56.00
50989;DHT22;37008;52.210;21.112;2023-07-13T09:44:39;28.80;55.10
50989;DHT22;37008;52.210;21.112;2023-07-13T09:50:00;28.60;54.00
50989;DHT22;37008;52.210;21.112;2023-07-13T09:52:27;28.10;52.30
50989;DHT22;37008;52.210;21.112;2023-07-13T09:54:54;27.50;53.40
50989;DHT22;37008;52.210;21.112;2023-07-13T09:57:26;27.00;55.00
50989;DHT22;37008;52.210;21.112;2023-07-13T09:59:54;26.60;55.00
50989;DHT22;37008;52.210;21.112;2023-07-13T10:02:30;26.10;54.50
50989;DHT22;37008;52.210;21.112;2023-07-13T10:05:00;25.60;55.10
50989;DHT22;37008;52.210;21.112;2023-07-13T10:07:27;25.20;56.40
50989;DHT22;37008;52.210;21.112;2023-07-13T10:09:56;24.90;56.80
50989;DHT22;37008;52.210;21.112;2023-07-13T10:12:23;24.70;57.80
50989;DHT22;37008;52.210;21.112;2023-07-13T10:14:52;24.50;58.20
50989;DHT22;37008;52.210;21.112;2023-07-13T10:17:32;24.50;58.20
50989;DHT22;37008;52.210;21.112;2023-07-13T10:20:04;24.40;58.60
50989;DHT22;37008;52.210;21.112;2023-07-13T10:24:57;24.40;59.30
50989;DHT22;37008;52.210;21.112;2023-07-13T10:27:41;24.40;59.50
50989;DHT22;37008;52.210;21.112;2023-07-13T10:30:15;24.40;59.20
50989;DHT22;37008;52.210;21.112;2023-07-13T10:32:43;24.30;59.70
50989;DHT22;37008;52.210;21.112;2023-07-13T10:35:12;24.20;59.80
50989;DHT22;37008;52.210;21.112;2023-07-13T10:40:29;23.90;60.00
50989;DHT22;37008;52.210;21.112;2023-07-13T10:42:59;23.70;60.10
50989;DHT22;37008;52.210;21.112;2023-07-13T10:45:27;23.50;61.20
50989;DHT22;37008;52.210;21.112;2023-07-13T10:47:55;23.40;60.30
50989;DHT22;37008;52.210;21.112;2023-07-13T10:50:26;23.20;61.10
50989;DHT22;37008;52.210;21.112;2023-07-13T10:52:55;23.00;61.80
50989;DHT22;37008;52.210;21.112;2023-07-13T10:55:31;22.80;62.20
50989;DHT22;37008;52.210;21.112;2023-07-13T10:58:11;22.70;63.80
50989;DHT22;37008;52.210;21.112;2023-07-13T11:01:28;22.50;64.50
50989;DHT22;37008;52.210;21.112;2023-07-13T11:03:30;22.40;65.00
50989;DHT22;37008;52.210;21.112;2023-07-13T11:19:08;20.90;79.80
50989;DHT22;37008;52.210;21.112;2023-07-13T11:27:38;18.90;99.90
50989;DHT22;37008;52.210;21.112;2023-07-13T11:30:47;18.60;99.90
50989;DHT22;37008;52.210;21.112;2023-07-13T11:33:25;18.30;99.90
50989;DHT22;37008;52.210;21.112;2023-07-13T11:35:50;18.10;99.90
50989;DHT22;37008;52.210;21.112;2023-07-13T11:38:20;17.90;99.90
50989;DHT22;37008;52.210;21.112;2023-07-13T11:40:47;17.90;99.90
50989;DHT22;37008;52.210;21.112;2023-07-13T11:43:15;17.80;99.90
50989;DHT22;37008;52.210;21.112;2023-07-13T11:45:43;17.90;99.90
50989;DHT22;37008;52.210;21.112;2023-07-13T11:48:23;17.80;99.90
50989;DHT22;37008;52.210;21.112;2023-07-13T11:51:16;17.80;99.90
50989;DHT22;37008;52.210;21.112;2023-07-13T11:53:44;17.90;99.90
50989;DHT22;37008;52.210;21.112;2023-07-13T11:56:10;18.00;99.90
50989;DHT22;37008;52.210;21.112;2023-07-13T11:58:36;18.00;99.90
50989;DHT22;37008;52.210;21.112;2023-07-13T12:01:02;18.10;99.90
50989;DHT22;37008;52.210;21.112;2023-07-13T12:03:30;18.10;99.90
50989;DHT22;37008;52.210;21.112;2023-07-13T12:08:23;18.20;99.90
50989;DHT22;37008;52.210;21.112;2023-07-13T12:10:56;18.20;99.90
50989;DHT22;37008;52.210;21.112;2023-07-13T12:13:22;18.10;99.90
50989;DHT22;37008;52.210;21.112;2023-07-13T12:15:48;18.10;99.90
50989;DHT22;37008;52.210;21.112;2023-07-13T12:18:19;18.20;99.90
50989;DHT22;37008;52.210;21.112;2023-07-13T12:20:46;18.30;99.90
50989;DHT22;37008;52.210;21.112;2023-07-13T12:23:25;18.30;99.90
50989;DHT22;37008;52.210;21.112;2023-07-13T12:25:52;18.40;99.90
50989;DHT22;37008;52.210;21.112;2023-07-13T12:28:34;18.40;99.90
50989;DHT22;37008;52.210;21.112;2023-07-13T12:31:03;18.50;99.90
50989;DHT22;37008;52.210;21.112;2023-07-13T12:33:29;18.50;99.90
50989;DHT22;37008;52.210;21.112;2023-07-13T12:35:57;18.60;99.90
50989;DHT22;37008;52.210;21.112;2023-07-13T12:38:24;18.70;99.90
50989;DHT22;37008;52.210;21.112;2023-07-13T12:40:52;18.70;99.90
50989;DHT22;37008;52.210;21.112;2023-07-13T12:43:21;18.90;99.90
50989;DHT22;37008;52.210;21.112;2023-07-13T12:46:02;18.90;99.90
50989;DHT22;37008;52.210;21.112;2023-07-13T12:48:28;19.00;99.90
50989;DHT22;37008;52.210;21.112;2023-07-13T12:50:55;19.00;99.90
50989;DHT22;37008;52.210;21.112;2023-07-13T12:53:23;19.00;99.90
50989;DHT22;37008;52.210;21.112;2023-07-13T12:55:52;19.00;99.90
50989;DHT22;37008;52.210;21.112;2023-07-13T12:58:42;19.10;99.90
50989;DHT22;37008;52.210;21.112;2023-07-13T13:01:10;19.10;99.90
50989;DHT22;37008;52.210;21.112;2023-07-13T13:03:46;19.10;99.90
50989;DHT22;37008;52.210;21.112;2023-07-13T13:08:41;19.20;99.90
50989;DHT22;37008;52.210;21.112;2023-07-13T13:11:08;19.20;99.90
50989;DHT22;37008;52.210;21.112;2023-07-13T13:13:34;19.20;99.90
50989;DHT22;37008;52.210;21.112;2023-07-13T13:18:55;19.10;99.90
50989;DHT22;37008;52.210;21.112;2023-07-13T13:21:23;19.00;99.90
50989;DHT22;37008;52.210;21.112;2023-07-13T13:23:49;18.90;99.90
50989;DHT22;37008;52.210;21.112;2023-07-13T13:26:16;18.90;99.90
50989;DHT22;37008;52.210;21.112;2023-07-13T13:28:43;18.90;99.90
50989;DHT22;37008;52.210;21.112;2023-07-13T13:31:13;18.90;99.90
50989;DHT22;37008;52.210;21.112;2023-07-13T13:33:41;18.90;99.90
50989;DHT22;37008;52.210;21.112;2023-07-13T13:36:22;18.90;99.90
50989;DHT22;37008;52.210;21.112;2023-07-13T13:38:49;18.90;99.90
50989;DHT22;37008;52.210;21.112;2023-07-13T13:41:16;18.80;99.90
50989;DHT22;37008;52.210;21.112;2023-07-13T13:43:43;18.80;99.90
50989;DHT22;37008;52.210;21.112;2023-07-13T13:46:22;18.90;99.90
50989;DHT22;37008;52.210;21.112;2023-07-13T13:48:50;18.90;99.90
50989;DHT22;37008;52.210;21.112;2023-07-13T13:51:19;19.00;99.90
50989;DHT22;37008;52.210;21.112;2023-07-13T13:53:46;19.10;99.90
50989;DHT22;37008;52.210;21.112;2023-07-13T13:56:13;19.10;99.90
50989;DHT22;37008;52.210;21.112;2023-07-13T13:58:39;19.20;99.90
50989;DHT22;37008;52.210;21.112;2023-07-13T14:01:12;19.30;99.90
50989;DHT22;37008;52.210;21.112;2023-07-13T14:03:39;19.30;99.90
50989;DHT22;37008;52.210;21.112;2023-07-13T14:06:05;19.40;99.90
50989;DHT22;37008;52.210;21.112;2023-07-13T14:08:30;19.40;99.90
50989;DHT22;37008;52.210;21.112;2023-07-13T14:10:57;19.50;99.90
50989;DHT22;37008;52.210;21.112;2023-07-13T14:13:30;19.50;99.90
50989;DHT22;37008;52.210;21.112;2023-07-13T14:15:56;19.50;99.90
50989;DHT22;37008;52.210;21.112;2023-07-13T14:18:22;19.60;99.90
50989;DHT22;37008;52.210;21.112;2023-07-13T14:20:49;19.60;99.90
50989;DHT22;37008;52.210;21.112;2023-07-13T14:23:17;19.70;99.90
50989;DHT22;37008;52.210;21.112;2023-07-13T14:25:44;19.60;99.90
50989;DHT22;37008;52.210;21.112;2023-07-13T14:28:20;19.60;99.90
50989;DHT22;37008;52.210;21.112;2023-07-13T14:30:47;19.70;99.90
50989;DHT22;37008;52.210;21.112;2023-07-13T14:33:13;19.70;99.90
50989;DHT22;37008;52.210;21.112;2023-07-13T14:35:39;19.70;99.90
50989;DHT22;37008;52.210;21.112;2023-07-13T14:38:05;19.70;99.90
50989;DHT22;37008;52.210;21.112;2023-07-13T14:40:34;19.70;99.90
50989;DHT22;37008;52.210;21.112;2023-07-13T14:43:00;19.70;99.90
50989;DHT22;37008;52.210;21.112;2023-07-13T14:45:26;19.80;99.90
50989;DHT22;37008;52.210;21.112;2023-07-13T14:47:52;19.70;99.90
50989;DHT22;37008;52.210;21.112;2023-07-13T14:50:31;19.80;99.90
50989;DHT22;37008;52.210;21.112;2023-07-13T14:52:57;19.80;99.90
50989;DHT22;37008;52.210;21.112;2023-07-13T14:55:23;19.80;99.90
50989;DHT22;37008;52.210;21.112;2023-07-13T14:57:51;19.70;99.90
50989;DHT22;37008;52.210;21.112;2023-07-13T15:00:19;19.70;99.90
50989;DHT22;37008;52.210;21.112;2023-07-13T15:02:53;19.70;99.90
50989;DHT22;37008;52.210;21.112;2023-07-13T15:05:22;19.70;99.90
50989;DHT22;37008;52.210;21.112;2023-07-13T15:07:50;19.70;99.90
50989;DHT22;37008;52.210;21.112;2023-07-13T15:10:21;19.70;99.90
50989;DHT22;37008;52.210;21.112;2023-07-13T15:12:47;19.60;99.90
50989;DHT22;37008;52.210;21.112;2023-07-13T15:15:13;19.60;99.90
50989;DHT22;37008;52.210;21.112;2023-07-13T15:17:41;19.50;99.90
50989;DHT22;37008;52.210;21.112;2023-07-13T15:20:26;19.40;99.90
50989;DHT22;37008;52.210;21.112;2023-07-13T15:22:53;19.40;99.90
50989;DHT22;37008;52.210;21.112;2023-07-13T15:25:21;19.30;99.90
50989;DHT22;37008;52.210;21.112;2023-07-13T15:27:50;19.20;99.90
50989;DHT22;37008;52.210;21.112;2023-07-13T15:30:15;19.20;99.90
50989;DHT22;37008;52.210;21.112;2023-07-13T15:32:42;19.10;99.90
50989;DHT22;37008;52.210;21.112;2023-07-13T15:35:24;19.10;99.90
50989;DHT22;37008;52.210;21.112;2023-07-13T15:37:50;19.10;99.90
50989;DHT22;37008;52.210;21.112;2023-07-13T15:40:16;19.10;99.90
50989;DHT22;37008;52.210;21.112;2023-07-13T15:42:43;19.10;99.90
50989;DHT22;37008;52.210;21.112;2023-07-13T15:45:20;19.00;99.90
50989;DHT22;37008;52.210;21.112;2023-07-13T15:47:47;18.90;99.90
50989;DHT22;37008;52.210;21.112;2023-07-13T15:50:18;18.90;99.90
50989;DHT22;37008;52.210;21.112;2023-07-13T15:52:47;18.90;99.90
50989;DHT22;37008;52.210;21.112;2023-07-13T15:55:13;18.80;99.90
50989;DHT22;37008;52.210;21.112;2023-07-13T15:57:47;18.80;99.90
50989;DHT22;37008;52.210;21.112;2023-07-13T16:00:21;18.70;99.90
50989;DHT22;37008;52.210;21.112;2023-07-13T16:02:48;18.70;99.90
50989;DHT22;37008;52.210;21.112;2023-07-13T16:05:14;18.60;99.90